Bay City, WI

3:40 PM CST on February 12, 2016 (GMT -0600)
Red Wing Municipal

Weather History for KRGK - April, 2013

Change the Weather History Date:

Thursday, April 11, 2013

  Actual Average Record
Temperature  
Mean Temperature 34 °F -  
Max Temperature 39 °F 54 °F 71 °F (1998)
Min Temperature 30 °F 33 °F 17 °F (1997)
Degree Days  
Heating Degree Days 30    
Moisture  
Dew Point 29 °F    
Average Humidity 81    
Maximum Humidity 93    
Minimum Humidity 49    
Precipitation  
Precipitation 0.33 in - - ()
Sea Level Pressure  
Sea Level Pressure 29.72 in    
Wind  
Wind Speed 11 mph (East)    
Max Wind Speed 22 mph    
Max Gust Speed 31 mph    
Visibility 4 miles    
Events Rain , Snow    
Averages and records for this station are not official NWS values.
T = Trace of Precipitation, MM = Missing Value Source: NWS Daily Summary

Daily Weather History Graph

Daily Weather History Graph

Search for Another Location

Airport or City:

Trip Planner

Search our weather history database for the weather conditions in past years. The results will help you decide how hot, cold, wet, or windy it might be!

Date:

Astronomy

Apr. 11, 2013 Rise Set
Actual Time 6:32 AM CDT 7:50 PM CDT
Civil Twilight 6:02 AM CDT 8:20 PM CDT
Nautical Twilight 5:26 AM CDT 8:56 PM CDT
Astronomical Twilight 4:47 AM CDT 9:35 PM CDT
Moon 7:00 AM CDT (4/11) 9:29 PM CDT (4/11)
Length of Visible Light 14h 18m
Length of Day
13h 17m
New Moon, 2% of the Moon is Illuminated
Apr 11
New Moon
Apr 18
First Quarter
Apr 25
Full
May 2
Last Quarter
May 9
New

Hourly Weather History & Observations

Time (CDT) Temp. Windchill Dew Point Humidity Pressure Visibility Wind Dir Wind Speed Gust Speed Precip Events Conditions
12:15 AM 39.2 °F 33.6 °F 24.8 °F 56% 29.88 in 10.0 mi East 8.1 mph - N/A   Overcast
12:35 AM 39.2 °F 33.6 °F 24.8 °F 56% 29.87 in 10.0 mi East 8.1 mph - N/A   Overcast
12:55 AM 39.2 °F 34.2 °F 23.0 °F 52% 29.87 in 10.0 mi East 6.9 mph - N/A   Overcast
1:15 AM 39.2 °F 33.6 °F 23.0 °F 52% 29.88 in 10.0 mi East 8.1 mph - N/A   Overcast
1:35 AM 39.2 °F 30.8 °F 21.2 °F 49% 29.86 in 10.0 mi East 15.0 mph 19.6 mph N/A   Overcast
1:54 AM 39.2 °F 31.6 °F 21.2 °F 49% 29.84 in 10.0 mi East 12.7 mph 18.4 mph N/A   Overcast
2:15 AM 37.4 °F 30.3 °F 21.2 °F 52% 29.83 in 10.0 mi East 10.4 mph 21.9 mph N/A   Overcast
2:35 AM 37.4 °F 28.5 °F 21.2 °F 52% 29.81 in 10.0 mi East 15.0 mph 20.7 mph N/A   Overcast
2:55 AM 37.4 °F 27.8 °F 21.2 °F 52% 29.79 in 10.0 mi East 17.3 mph 25.3 mph N/A   Overcast
3:15 AM 37.4 °F 26.6 °F 21.2 °F 52% 29.79 in 7.0 mi East 21.9 mph 31.1 mph N/A   Drizzle
3:35 AM 35.6 °F 25.9 °F 24.8 °F 65% 29.79 in 7.0 mi East 16.1 mph 25.3 mph N/A Rain Light Rain
3:54 AM 35.6 °F 25.2 °F 24.8 °F 65% 29.77 in 7.0 mi East 18.4 mph 29.9 mph N/A   Light Drizzle
4:15 AM 33.8 °F 23.2 °F 24.8 °F 70% 29.75 in 10.0 mi East 17.3 mph 28.8 mph N/A   Overcast
4:35 AM 33.8 °F 23.2 °F 26.6 °F 75% 29.74 in 5.0 mi East 17.3 mph 26.5 mph 0.01 in   Overcast
4:54 AM 33.8 °F 23.2 °F 26.6 °F 75% 29.72 in 3.0 mi East 17.3 mph 25.3 mph 0.02 in   Overcast
5:14 AM 33.8 °F 23.2 °F 26.6 °F 75% 29.70 in 10.0 mi East 17.3 mph 25.3 mph N/A   Overcast
5:35 AM 33.8 °F 24.3 °F 26.6 °F 75% 29.68 in 7.0 mi East 13.8 mph 23.0 mph N/A   Overcast
5:55 AM 33.8 °F 27.0 °F 26.6 °F 75% 29.70 in 4.0 mi ESE 8.1 mph 20.7 mph 0.01 in   Overcast
6:15 AM 33.8 °F 30.8 °F 28.4 °F 81% 29.81 in 1.0 mi SSW 3.5 mph - 0.03 in Snow Snow
6:35 AM 32.0 °F - 30.2 °F 93% 29.80 in 1.0 mi Calm Calm - 0.05 in Snow Snow
6:55 AM 32.0 °F 28.7 °F 30.2 °F 93% 29.79 in 1.0 mi NE 3.5 mph - 0.06 in Snow Light Snow
7:15 AM 32.0 °F 28.7 °F 30.2 °F 93% 29.78 in 0.8 mi ENE 3.5 mph - 0.01 in Snow Snow
7:35 AM 32.0 °F 25.6 °F 30.2 °F 93% 29.76 in 1.0 mi NE 6.9 mph - 0.02 in Snow Light Snow
7:55 AM 32.0 °F 25.6 °F 30.2 °F 93% 29.76 in 4.0 mi ENE 6.9 mph - 0.03 in Snow Light Snow
8:15 AM 32.0 °F 25.6 °F 30.2 °F 93% 29.76 in 1.0 mi ENE 6.9 mph - 0.03 in Snow Light Snow
8:35 AM 32.0 °F 26.4 °F 30.2 °F 93% 29.75 in 1.0 mi ENE 5.8 mph - 0.06 in Snow Light Snow
8:55 AM 32.0 °F 24.8 °F 30.2 °F 93% 29.75 in 2.5 mi ENE 8.1 mph - 0.08 in Snow Light Snow
9:15 AM 33.8 °F 26.4 °F 30.2 °F 87% 29.74 in 3.0 mi ENE 9.2 mph - 0.02 in Snow Light Snow
9:35 AM 33.8 °F 27.0 °F 30.2 °F 87% 29.75 in 1.8 mi East 8.1 mph - 0.04 in Snow Light Snow
9:55 AM 33.8 °F 25.8 °F 30.2 °F 87% 29.74 in 2.0 mi East 10.4 mph - 0.06 in Snow Light Snow
10:15 AM 33.8 °F 25.3 °F 30.2 °F 87% 29.74 in 2.5 mi East 11.5 mph 16.1 mph 0.02 in Snow Light Snow
10:35 AM 33.8 °F 25.3 °F 30.2 °F 87% 29.73 in 3.0 mi East 11.5 mph 19.6 mph 0.04 in   Overcast
10:55 AM 33.8 °F 24.3 °F 30.2 °F 87% 29.73 in 2.0 mi East 13.8 mph 19.6 mph 0.06 in Snow Light Snow
11:15 AM 35.6 °F 26.6 °F 32.0 °F 87% 29.74 in 1.5 mi East 13.8 mph 20.7 mph 0.01 in Snow Light Snow
11:34 AM 35.6 °F 27.1 °F 32.0 °F 87% 29.74 in 2.0 mi East 12.7 mph 21.9 mph 0.01 in Snow Light Snow
12:14 PM 35.6 °F 28.6 °F 32.0 °F 87% 29.72 in 5.0 mi East 9.2 mph 19.6 mph N/A Snow Light Snow
12:35 PM 35.6 °F 27.1 °F 32.0 °F 87% 29.71 in 7.0 mi East 12.7 mph 18.4 mph N/A   Light Drizzle
12:55 PM 35.6 °F 28.0 °F 32.0 °F 87% 29.70 in 10.0 mi East 10.4 mph 17.3 mph N/A   Light Drizzle
1:14 PM 35.6 °F 27.1 °F 32.0 °F 87% 29.69 in 7.0 mi East 12.7 mph 20.7 mph N/A   Drizzle
1:35 PM 35.6 °F 27.5 °F 32.0 °F 87% 29.67 in 7.0 mi East 11.5 mph - N/A   Light Drizzle
1:55 PM 35.6 °F 26.6 °F 32.0 °F 87% 29.67 in 7.0 mi East 13.8 mph 19.6 mph N/A   Light Drizzle
2:15 PM 35.6 °F 26.2 °F 32.0 °F 87% 29.67 in 7.0 mi East 15.0 mph 20.7 mph N/A   Light Drizzle
2:35 PM 35.6 °F 26.2 °F 32.0 °F 87% 29.66 in 4.0 mi East 15.0 mph 21.9 mph N/A   Light Drizzle
2:55 PM 35.6 °F 27.1 °F 32.0 °F 87% 29.68 in 5.0 mi East 12.7 mph 20.7 mph N/A   Light Drizzle
3:14 PM 35.6 °F 27.1 °F 32.0 °F 87% 29.67 in 7.0 mi East 12.7 mph 17.3 mph N/A Rain Light Rain
3:35 PM 35.6 °F 28.0 °F 32.0 °F 87% 29.67 in 2.5 mi East 10.4 mph - N/A   Drizzle
3:54 PM 35.6 °F 27.1 °F 32.0 °F 87% 29.67 in 2.5 mi East 12.7 mph - N/A   Drizzle
4:13 PM 35.6 °F 27.5 °F 32.0 °F 87% 29.67 in 2.0 mi East 11.5 mph 16.1 mph N/A   Drizzle
4:35 PM 35.6 °F 27.5 °F 32.0 °F 87% 29.67 in 4.0 mi East 11.5 mph 18.4 mph N/A   Light Drizzle
4:55 PM 35.6 °F 26.6 °F 32.0 °F 87% 29.67 in 2.0 mi East 13.8 mph 24.2 mph N/A   Light Drizzle
5:15 PM 35.6 °F 26.2 °F 32.0 °F 87% 29.67 in 2.5 mi East 15.0 mph 19.6 mph N/A   Overcast
5:34 PM 35.6 °F 26.6 °F 32.0 °F 87% 29.67 in 2.0 mi East 13.8 mph 18.4 mph N/A Snow Light Snow
5:55 PM 35.6 °F 27.1 °F 30.2 °F 81% 29.67 in 2.0 mi East 12.7 mph 23.0 mph N/A Snow Light Snow
6:14 PM 33.8 °F 23.9 °F 30.2 °F 87% 29.67 in 1.8 mi East 15.0 mph 23.0 mph N/A Snow Light Snow
6:35 PM 33.8 °F 26.4 °F 30.2 °F 87% 29.68 in 1.0 mi East 9.2 mph 17.3 mph N/A Snow Light Snow
6:55 PM 33.8 °F 24.3 °F 30.2 °F 87% 29.66 in 1.0 mi East 13.8 mph 17.3 mph N/A Snow Light Snow
7:14 PM 33.8 °F 25.8 °F 30.2 °F 87% 29.65 in 0.5 mi East 10.4 mph 17.3 mph N/A Snow Light Snow
7:35 PM 33.8 °F 26.4 °F 30.2 °F 87% 29.65 in 2.0 mi ENE 9.2 mph 18.4 mph N/A Snow Light Snow
7:55 PM 33.8 °F 23.9 °F 30.2 °F 87% 29.66 in 1.8 mi East 15.0 mph 21.9 mph N/A Snow Light Snow
8:15 PM 33.8 °F 24.8 °F 30.2 °F 87% 29.66 in 1.2 mi East 12.7 mph 18.4 mph N/A Snow Light Snow
8:33 PM 33.8 °F 25.3 °F 30.2 °F 87% 29.66 in 1.0 mi ENE 11.5 mph - N/A Snow Snow
8:54 PM 32.0 °F 22.1 °F 30.2 °F 93% 29.66 in 2.0 mi East 13.8 mph - N/A Snow Light Snow
9:15 PM 32.0 °F 24.2 °F 30.2 °F 93% 29.66 in 4.0 mi East 9.2 mph 17.3 mph N/A Snow Light Snow
9:34 PM 32.0 °F 24.2 °F 30.2 °F 93% 29.67 in 4.0 mi ENE 9.2 mph 16.1 mph N/A Snow Light Snow
9:55 PM 32.0 °F 24.8 °F 30.2 °F 93% 29.67 in 7.0 mi East 8.1 mph - N/A Snow Light Snow
10:15 PM 32.0 °F 23.6 °F 28.4 °F 87% 29.66 in 3.0 mi ENE 10.4 mph - N/A Snow Light Snow
10:34 PM 32.0 °F 24.8 °F 28.4 °F 87% 29.66 in 5.0 mi ENE 8.1 mph 17.3 mph N/A Snow Light Snow
10:55 PM 32.0 °F 25.6 °F 28.4 °F 87% 29.66 in 5.0 mi ENE 6.9 mph 17.3 mph N/A   Overcast
11:15 PM 32.0 °F 23.6 °F 28.4 °F 87% 29.66 in 4.0 mi ENE 10.4 mph 16.1 mph N/A Snow Light Snow
11:34 PM 30.2 °F 22.6 °F 28.4 °F 93% 29.66 in 3.0 mi NE 8.1 mph - N/A Snow Light Snow
11:55 PM 30.2 °F 21.3 °F 28.4 °F 93% 29.66 in 5.0 mi East 10.4 mph 16.1 mph N/A Snow Light Snow